sensor_id;sensor_type;location;lat;lon;timestamp;temperature;humidity
6210;DHT22;3138;52.550;13.148;2023-05-10T00:02:02;12.40;1.00
6210;DHT22;3138;52.550;13.148;2023-05-10T00:04:29;12.40;1.00
6210;DHT22;3138;52.550;13.148;2023-05-10T00:06:56;12.40;1.00
6210;DHT22;3138;52.550;13.148;2023-05-10T00:09:23;12.40;1.00
6210;DHT22;3138;52.550;13.148;2023-05-10T00:11:50;12.40;1.00
6210;DHT22;3138;52.550;13.148;2023-05-10T00:14:17;12.40;1.00
6210;DHT22;3138;52.550;13.148;2023-05-10T00:16:45;12.50;1.00
6210;DHT22;3138;52.550;13.148;2023-05-10T00:19:12;12.40;1.00
6210;DHT22;3138;52.550;13.148;2023-05-10T00:21:39;12.40;1.00
6210;DHT22;3138;52.550;13.148;2023-05-10T00:24:06;12.40;1.00
6210;DHT22;3138;52.550;13.148;2023-05-10T00:26:33;12.40;31.00
6210;DHT22;3138;52.550;13.148;2023-05-10T00:29:00;12.50;15.00
6210;DHT22;3138;52.550;13.148;2023-05-10T00:31:27;12.40;37.60
6210;DHT22;3138;52.550;13.148;2023-05-10T00:33:55;12.30;7.30
6210;DHT22;3138;52.550;13.148;2023-05-10T00:36:22;12.40;22.70
6210;DHT22;3138;52.550;13.148;2023-05-10T00:38:49;12.40;99.90
6210;DHT22;3138;52.550;13.148;2023-05-10T00:41:15;12.40;17.70
6210;DHT22;3138;52.550;13.148;2023-05-10T00:43:42;12.30;49.90
6210;DHT22;3138;52.550;13.148;2023-05-10T00:46:09;12.30;1.00
6210;DHT22;3138;52.550;13.148;2023-05-10T00:48:36;12.20;1.00
6210;DHT22;3138;52.550;13.148;2023-05-10T00:51:04;12.20;1.00
6210;DHT22;3138;52.550;13.148;2023-05-10T00:53:31;12.10;1.00
6210;DHT22;3138;52.550;13.148;2023-05-10T00:55:59;12.00;1.00
6210;DHT22;3138;52.550;13.148;2023-05-10T00:58:25;12.10;1.00
6210;DHT22;3138;52.550;13.148;2023-05-10T01:00:55;12.00;1.00
6210;DHT22;3138;52.550;13.148;2023-05-10T01:03:22;11.90;1.00
6210;DHT22;3138;52.550;13.148;2023-05-10T01:05:49;12.00;1.00
6210;DHT22;3138;52.550;13.148;2023-05-10T01:08:18;11.90;1.00
6210;DHT22;3138;52.550;13.148;2023-05-10T01:10:45;11.90;1.00
6210;DHT22;3138;52.550;13.148;2023-05-10T01:13:29;12.00;1.00
6210;DHT22;3138;52.550;13.148;2023-05-10T01:15:57;12.00;1.00
6210;DHT22;3138;52.550;13.148;2023-05-10T01:18:24;12.00;1.00
6210;DHT22;3138;52.550;13.148;2023-05-10T01:21:00;11.90;28.10
6210;DHT22;3138;52.550;13.148;2023-05-10T01:24:07;11.90;99.90
6210;DHT22;3138;52.550;13.148;2023-05-10T01:27:07;11.80;99.90
6210;DHT22;3138;52.550;13.148;2023-05-10T01:33:11;11.80;60.50
6210;DHT22;3138;52.550;13.148;2023-05-10T01:35:45;11.80;27.50
6210;DHT22;3138;52.550;13.148;2023-05-10T01:38:18;11.70;18.00
6210;DHT22;3138;52.550;13.148;2023-05-10T01:40:55;11.60;1.00
6210;DHT22;3138;52.550;13.148;2023-05-10T01:43:28;11.50;1.00
6210;DHT22;3138;52.550;13.148;2023-05-10T01:46:00;11.50;1.20
6210;DHT22;3138;52.550;13.148;2023-05-10T01:48:36;11.50;15.90
6210;DHT22;3138;52.550;13.148;2023-05-10T01:51:05;11.40;1.00
6210;DHT22;3138;52.550;13.148;2023-05-10T01:53:33;11.40;42.00
6210;DHT22;3138;52.550;13.148;2023-05-10T01:56:03;11.30;26.60
6210;DHT22;3138;52.550;13.148;2023-05-10T01:58:31;11.30;1.00
6210;DHT22;3138;52.550;13.148;2023-05-10T02:01:01;11.40;58.70
6210;DHT22;3138;52.550;13.148;2023-05-10T02:03:31;11.30;96.40
6210;DHT22;3138;52.550;13.148;2023-05-10T02:06:00;11.30;93.60
6210;DHT22;3138;52.550;13.148;2023-05-10T02:08:28;11.30;9.80
6210;DHT22;3138;52.550;13.148;2023-05-10T02:10:56;11.40;1.00
6210;DHT22;3138;52.550;13.148;2023-05-10T02:13:24;11.40;19.40
6210;DHT22;3138;52.550;13.148;2023-05-10T02:15:53;11.30;10.40
6210;DHT22;3138;52.550;13.148;2023-05-10T02:18:22;11.20;1.00
6210;DHT22;3138;52.550;13.148;2023-05-10T02:20:51;11.10;18.40
6210;DHT22;3138;52.550;13.148;2023-05-10T02:23:20;11.20;1.00
6210;DHT22;3138;52.550;13.148;2023-05-10T02:25:49;11.20;1.00
6210;DHT22;3138;52.550;13.148;2023-05-10T02:28:18;11.30;1.00
6210;DHT22;3138;52.550;13.148;2023-05-10T02:30:47;11.20;1.00
6210;DHT22;3138;52.550;13.148;2023-05-10T02:33:15;11.00;1.00
6210;DHT22;3138;52.550;13.148;2023-05-10T02:35:42;11.10;1.00
6210;DHT22;3138;52.550;13.148;2023-05-10T02:38:09;11.00;1.00
6210;DHT22;3138;52.550;13.148;2023-05-10T02:40:39;10.80;1.00
6210;DHT22;3138;52.550;13.148;2023-05-10T02:43:10;10.90;1.00
6210;DHT22;3138;52.550;13.148;2023-05-10T02:45:38;10.90;1.00
6210;DHT22;3138;52.550;13.148;2023-05-10T02:48:06;11.00;1.00
6210;DHT22;3138;52.550;13.148;2023-05-10T02:50:34;10.80;34.00
6210;DHT22;3138;52.550;13.148;2023-05-10T02:53:15;10.90;40.60
6210;DHT22;3138;52.550;13.148;2023-05-10T02:55:45;10.80;88.60
6210;DHT22;3138;52.550;13.148;2023-05-10T02:58:15;10.80;56.40
6210;DHT22;3138;52.550;13.148;2023-05-10T03:00:44;10.70;38.70
6210;DHT22;3138;52.550;13.148;2023-05-10T03:03:11;10.80;61.10
6210;DHT22;3138;52.550;13.148;2023-05-10T03:05:38;10.80;23.60
6210;DHT22;3138;52.550;13.148;2023-05-10T03:08:05;10.70;8.80
6210;DHT22;3138;52.550;13.148;2023-05-10T03:10:34;10.70;58.40
6210;DHT22;3138;52.550;13.148;2023-05-10T03:13:15;10.70;44.70
6210;DHT22;3138;52.550;13.148;2023-05-10T03:15:49;10.60;79.80
6210;DHT22;3138;52.550;13.148;2023-05-10T03:18:21;10.50;99.90
6210;DHT22;3138;52.550;13.148;2023-05-10T03:20:49;10.50;82.00
6210;DHT22;3138;52.550;13.148;2023-05-10T03:23:22;10.40;99.90
6210;DHT22;3138;52.550;13.148;2023-05-10T03:25:51;10.30;99.90
6210;DHT22;3138;52.550;13.148;2023-05-10T03:28:21;10.40;99.90
6210;DHT22;3138;52.550;13.148;2023-05-10T03:30:49;10.40;99.90
6210;DHT22;3138;52.550;13.148;2023-05-10T03:33:16;10.40;99.90
6210;DHT22;3138;52.550;13.148;2023-05-10T03:35:42;10.30;99.90
6210;DHT22;3138;52.550;13.148;2023-05-10T03:38:11;10.40;99.90
6210;DHT22;3138;52.550;13.148;2023-05-10T03:40:40;10.50;99.90
6210;DHT22;3138;52.550;13.148;2023-05-10T03:43:07;10.50;99.90
6210;DHT22;3138;52.550;13.148;2023-05-10T03:45:35;10.50;99.90
6210;DHT22;3138;52.550;13.148;2023-05-10T03:48:02;10.50;99.90
6210;DHT22;3138;52.550;13.148;2023-05-10T03:50:29;10.50;91.20
6210;DHT22;3138;52.550;13.148;2023-05-10T03:52:56;10.50;99.90
6210;DHT22;3138;52.550;13.148;2023-05-10T03:55:23;10.60;99.90
6210;DHT22;3138;52.550;13.148;2023-05-10T03:57:50;10.50;99.90
6210;DHT22;3138;52.550;13.148;2023-05-10T04:00:19;10.60;99.90
6210;DHT22;3138;52.550;13.148;2023-05-10T04:02:48;10.60;99.90
6210;DHT22;3138;52.550;13.148;2023-05-10T04:05:15;10.60;99.90
6210;DHT22;3138;52.550;13.148;2023-05-10T04:07:42;10.90;99.90
6210;DHT22;3138;52.550;13.148;2023-05-10T04:10:10;11.60;99.90
6210;DHT22;3138;52.550;13.148;2023-05-10T04:12:37;12.50;99.90
6210;DHT22;3138;52.550;13.148;2023-05-10T04:15:04;12.30;99.90
6210;DHT22;3138;52.550;13.148;2023-05-10T04:17:32;11.80;99.90
6210;DHT22;3138;52.550;13.148;2023-05-10T04:20:00;11.50;99.90
6210;DHT22;3138;52.550;13.148;2023-05-10T04:22:27;11.80;99.90
6210;DHT22;3138;52.550;13.148;2023-05-10T04:24:54;11.50;99.90
6210;DHT22;3138;52.550;13.148;2023-05-10T04:27:21;11.20;99.90
6210;DHT22;3138;52.550;13.148;2023-05-10T04:29:48;11.20;99.90
6210;DHT22;3138;52.550;13.148;2023-05-10T04:32:15;11.30;99.90
6210;DHT22;3138;52.550;13.148;2023-05-10T04:34:42;11.40;99.90
6210;DHT22;3138;52.550;13.148;2023-05-10T04:37:11;11.60;99.90
6210;DHT22;3138;52.550;13.148;2023-05-10T04:39:37;11.90;99.90
6210;DHT22;3138;52.550;13.148;2023-05-10T04:42:04;12.00;99.90
6210;DHT22;3138;52.550;13.148;2023-05-10T04:44:31;12.20;99.90
6210;DHT22;3138;52.550;13.148;2023-05-10T04:46:58;12.40;99.90
6210;DHT22;3138;52.550;13.148;2023-05-10T04:49:25;12.50;99.90
6210;DHT22;3138;52.550;13.148;2023-05-10T04:51:52;12.60;99.90
6210;DHT22;3138;52.550;13.148;2023-05-10T04:54:20;12.60;99.90
6210;DHT22;3138;52.550;13.148;2023-05-10T04:56:47;12.90;99.90
6210;DHT22;3138;52.550;13.148;2023-05-10T04:59:14;13.00;99.90
6210;DHT22;3138;52.550;13.148;2023-05-10T05:01:41;13.10;99.90
6210;DHT22;3138;52.550;13.148;2023-05-10T05:04:08;13.20;99.90
6210;DHT22;3138;52.550;13.148;2023-05-10T05:06:34;13.30;99.90
6210;DHT22;3138;52.550;13.148;2023-05-10T05:09:01;13.30;99.90
6210;DHT22;3138;52.550;13.148;2023-05-10T05:11:29;13.50;99.90
6210;DHT22;3138;52.550;13.148;2023-05-10T05:13:56;13.50;99.90
6210;DHT22;3138;52.550;13.148;2023-05-10T05:16:24;13.60;98.40
6210;DHT22;3138;52.550;13.148;2023-05-10T05:18:51;13.70;99.90
6210;DHT22;3138;52.550;13.148;2023-05-10T05:21:19;13.70;97.00
6210;DHT22;3138;52.550;13.148;2023-05-10T05:23:47;13.50;84.50
6210;DHT22;3138;52.550;13.148;2023-05-10T05:26:14;13.80;99.90
6210;DHT22;3138;52.550;13.148;2023-05-10T05:28:42;13.90;99.90
6210;DHT22;3138;52.550;13.148;2023-05-10T05:31:09;14.30;99.90
6210;DHT22;3138;52.550;13.148;2023-05-10T05:33:37;14.30;99.90
6210;DHT22;3138;52.550;13.148;2023-05-10T05:36:04;14.20;99.90
6210;DHT22;3138;52.550;13.148;2023-05-10T05:38:32;14.50;99.90
6210;DHT22;3138;52.550;13.148;2023-05-10T05:40:58;14.60;99.90
6210;DHT22;3138;52.550;13.148;2023-05-10T05:43:25;14.70;99.90
6210;DHT22;3138;52.550;13.148;2023-05-10T05:45:54;15.00;99.90
6210;DHT22;3138;52.550;13.148;2023-05-10T05:48:23;14.90;99.90
6210;DHT22;3138;52.550;13.148;2023-05-10T05:50:50;15.10;99.90
6210;DHT22;3138;52.550;13.148;2023-05-10T05:53:16;15.10;99.90
6210;DHT22;3138;52.550;13.148;2023-05-10T05:55:51;15.30;99.90
6210;DHT22;3138;52.550;13.148;2023-05-10T05:58:18;15.20;99.90
6210;DHT22;3138;52.550;13.148;2023-05-10T06:00:45;15.20;99.90
6210;DHT22;3138;52.550;13.148;2023-05-10T06:03:13;15.60;1.00
6210;DHT22;3138;52.550;13.148;2023-05-10T06:05:40;15.40;99.90
6210;DHT22;3138;52.550;13.148;2023-05-10T06:08:07;15.50;99.90
6210;DHT22;3138;52.550;13.148;2023-05-10T06:10:34;15.60;99.90
6210;DHT22;3138;52.550;13.148;2023-05-10T06:13:01;15.70;99.90
6210;DHT22;3138;52.550;13.148;2023-05-10T06:15:28;15.60;99.90
6210;DHT22;3138;52.550;13.148;2023-05-10T06:17:55;15.50;99.90
6210;DHT22;3138;52.550;13.148;2023-05-10T06:20:23;15.80;99.90
6210;DHT22;3138;52.550;13.148;2023-05-10T06:22:50;15.70;99.90
6210;DHT22;3138;52.550;13.148;2023-05-10T06:25:17;15.80;99.90
6210;DHT22;3138;52.550;13.148;2023-05-10T06:27:44;16.10;99.90
6210;DHT22;3138;52.550;13.148;2023-05-10T06:30:11;16.00;99.90
6210;DHT22;3138;52.550;13.148;2023-05-10T06:32:42;15.90;99.90
6210;DHT22;3138;52.550;13.148;2023-05-10T06:35:10;16.20;99.90
6210;DHT22;3138;52.550;13.148;2023-05-10T06:37:38;16.30;99.90
6210;DHT22;3138;52.550;13.148;2023-05-10T06:40:06;16.50;99.90
6210;DHT22;3138;52.550;13.148;2023-05-10T06:42:34;16.70;99.90
6210;DHT22;3138;52.550;13.148;2023-05-10T06:45:01;16.90;99.90
6210;DHT22;3138;52.550;13.148;2023-05-10T06:47:28;16.80;99.90
6210;DHT22;3138;52.550;13.148;2023-05-10T06:49:55;16.60;99.90
6210;DHT22;3138;52.550;13.148;2023-05-10T06:52:22;16.80;96.90
6210;DHT22;3138;52.550;13.148;2023-05-10T06:54:50;16.70;99.90
6210;DHT22;3138;52.550;13.148;2023-05-10T06:57:18;16.90;99.90
6210;DHT22;3138;52.550;13.148;2023-05-10T06:59:47;16.90;99.90
6210;DHT22;3138;52.550;13.148;2023-05-10T07:02:14;16.90;99.90
6210;DHT22;3138;52.550;13.148;2023-05-10T07:04:41;17.30;99.90
6210;DHT22;3138;52.550;13.148;2023-05-10T07:07:08;17.00;99.90
6210;DHT22;3138;52.550;13.148;2023-05-10T07:09:35;17.30;99.90
6210;DHT22;3138;52.550;13.148;2023-05-10T07:12:04;17.60;99.90
6210;DHT22;3138;52.550;13.148;2023-05-10T07:14:30;17.70;99.90
6210;DHT22;3138;52.550;13.148;2023-05-10T07:16:57;17.70;99.90
6210;DHT22;3138;52.550;13.148;2023-05-10T07:19:24;17.60;99.90
6210;DHT22;3138;52.550;13.148;2023-05-10T07:21:51;17.40;99.90
6210;DHT22;3138;52.550;13.148;2023-05-10T07:24:18;17.30;99.90
6210;DHT22;3138;52.550;13.148;2023-05-10T07:26:45;17.70;99.90
6210;DHT22;3138;52.550;13.148;2023-05-10T07:29:13;17.50;99.90
6210;DHT22;3138;52.550;13.148;2023-05-10T07:31:40;17.80;99.90
6210;DHT22;3138;52.550;13.148;2023-05-10T07:34:07;18.00;99.90
6210;DHT22;3138;52.550;13.148;2023-05-10T07:36:34;18.40;99.90
6210;DHT22;3138;52.550;13.148;2023-05-10T07:39:01;18.40;99.90
6210;DHT22;3138;52.550;13.148;2023-05-10T07:41:28;18.20;99.90
6210;DHT22;3138;52.550;13.148;2023-05-10T07:43:55;18.40;99.90
6210;DHT22;3138;52.550;13.148;2023-05-10T07:46:23;18.60;99.90
6210;DHT22;3138;52.550;13.148;2023-05-10T07:48:51;18.40;99.90
6210;DHT22;3138;52.550;13.148;2023-05-10T07:51:18;18.40;99.90
6210;DHT22;3138;52.550;13.148;2023-05-10T07:53:45;18.60;99.90
6210;DHT22;3138;52.550;13.148;2023-05-10T07:56:23;19.10;99.90
6210;DHT22;3138;52.550;13.148;2023-05-10T07:58:50;19.10;99.90
6210;DHT22;3138;52.550;13.148;2023-05-10T08:01:17;18.90;99.90
6210;DHT22;3138;52.550;13.148;2023-05-10T08:03:46;18.70;99.90
6210;DHT22;3138;52.550;13.148;2023-05-10T08:06:13;18.80;99.90
6210;DHT22;3138;52.550;13.148;2023-05-10T08:08:41;19.10;99.90
6210;DHT22;3138;52.550;13.148;2023-05-10T08:11:08;19.20;99.90
6210;DHT22;3138;52.550;13.148;2023-05-10T08:13:35;19.20;99.90
6210;DHT22;3138;52.550;13.148;2023-05-10T08:16:02;19.30;99.90
6210;DHT22;3138;52.550;13.148;2023-05-10T08:18:28;18.90;1.00
6210;DHT22;3138;52.550;13.148;2023-05-10T08:20:57;19.40;1.00
6210;DHT22;3138;52.550;13.148;2023-05-10T08:23:23;19.90;1.00
6210;DHT22;3138;52.550;13.148;2023-05-10T08:25:50;19.90;76.30
6210;DHT22;3138;52.550;13.148;2023-05-10T08:28:17;19.70;5.80
6210;DHT22;3138;52.550;13.148;2023-05-10T08:30:44;19.50;10.60
6210;DHT22;3138;52.550;13.148;2023-05-10T08:33:11;19.90;1.00
6210;DHT22;3138;52.550;13.148;2023-05-10T08:35:38;20.30;47.20
6210;DHT22;3138;52.550;13.148;2023-05-10T08:38:06;20.70;1.00
6210;DHT22;3138;52.550;13.148;2023-05-10T08:40:33;20.90;99.90
6210;DHT22;3138;52.550;13.148;2023-05-10T08:43:05;21.00;99.90
6210;DHT22;3138;52.550;13.148;2023-05-10T08:45:33;20.10;99.90
6210;DHT22;3138;52.550;13.148;2023-05-10T08:48:05;20.10;99.90
6210;DHT22;3138;52.550;13.148;2023-05-10T08:50:34;20.80;99.90
6210;DHT22;3138;52.550;13.148;2023-05-10T08:53:06;20.90;99.90
6210;DHT22;3138;52.550;13.148;2023-05-10T08:55:36;20.80;99.90
6210;DHT22;3138;52.550;13.148;2023-05-10T08:58:04;20.80;99.90
6210;DHT22;3138;52.550;13.148;2023-05-10T09:00:31;20.70;99.90
6210;DHT22;3138;52.550;13.148;2023-05-10T09:02:59;21.00;99.90
6210;DHT22;3138;52.550;13.148;2023-05-10T09:05:26;21.00;99.90
6210;DHT22;3138;52.550;13.148;2023-05-10T09:07:53;21.00;99.90
6210;DHT22;3138;52.550;13.148;2023-05-10T09:10:23;21.20;99.90
6210;DHT22;3138;52.550;13.148;2023-05-10T09:12:53;21.20;99.90
6210;DHT22;3138;52.550;13.148;2023-05-10T09:15:20;21.30;99.90
6210;DHT22;3138;52.550;13.148;2023-05-10T09:17:48;21.20;99.90
6210;DHT22;3138;52.550;13.148;2023-05-10T09:20:15;21.50;99.90
6210;DHT22;3138;52.550;13.148;2023-05-10T09:22:42;20.90;99.90
6210;DHT22;3138;52.550;13.148;2023-05-10T09:25:11;21.30;99.90
6210;DHT22;3138;52.550;13.148;2023-05-10T09:27:41;21.30;53.20
6210;DHT22;3138;52.550;13.148;2023-05-10T09:30:08;21.60;1.00
6210;DHT22;3138;52.550;13.148;2023-05-10T09:32:36;22.10;99.90
6210;DHT22;3138;52.550;13.148;2023-05-10T09:35:10;22.00;99.90
6210;DHT22;3138;52.550;13.148;2023-05-10T09:37:39;22.00;99.90
6210;DHT22;3138;52.550;13.148;2023-05-10T09:40:10;21.40;99.90
6210;DHT22;3138;52.550;13.148;2023-05-10T09:42:41;21.10;99.90
6210;DHT22;3138;52.550;13.148;2023-05-10T09:45:09;21.00;99.90
6210;DHT22;3138;52.550;13.148;2023-05-10T09:47:36;21.60;99.90
6210;DHT22;3138;52.550;13.148;2023-05-10T09:50:03;22.10;99.90
6210;DHT22;3138;52.550;13.148;2023-05-10T09:52:31;22.10;99.90
6210;DHT22;3138;52.550;13.148;2023-05-10T09:55:12;22.10;99.90
6210;DHT22;3138;52.550;13.148;2023-05-10T09:57:40;21.80;99.90
6210;DHT22;3138;52.550;13.148;2023-05-10T10:00:08;21.90;1.00
6210;DHT22;3138;52.550;13.148;2023-05-10T10:02:35;22.00;1.00
6210;DHT22;3138;52.550;13.148;2023-05-10T10:05:04;21.90;99.90
6210;DHT22;3138;52.550;13.148;2023-05-10T10:07:33;21.80;1.00
6210;DHT22;3138;52.550;13.148;2023-05-10T10:10:00;21.90;1.00
6210;DHT22;3138;52.550;13.148;2023-05-10T10:12:28;22.30;1.00
6210;DHT22;3138;52.550;13.148;2023-05-10T10:14:56;22.60;1.00
6210;DHT22;3138;52.550;13.148;2023-05-10T10:17:27;22.50;1.00
6210;DHT22;3138;52.550;13.148;2023-05-10T10:19:55;22.70;1.00
6210;DHT22;3138;52.550;13.148;2023-05-10T10:22:23;22.90;1.00
6210;DHT22;3138;52.550;13.148;2023-05-10T10:24:50;22.60;1.00
6210;DHT22;3138;52.550;13.148;2023-05-10T10:27:24;22.60;1.00
6210;DHT22;3138;52.550;13.148;2023-05-10T10:30:03;22.80;1.00
6210;DHT22;3138;52.550;13.148;2023-05-10T10:32:38;22.50;1.00
6210;DHT22;3138;52.550;13.148;2023-05-10T10:35:09;22.70;1.00
6210;DHT22;3138;52.550;13.148;2023-05-10T10:37:44;23.00;99.90
6210;DHT22;3138;52.550;13.148;2023-05-10T10:40:28;22.70;1.00
6210;DHT22;3138;52.550;13.148;2023-05-10T10:42:56;22.70;27.20
6210;DHT22;3138;52.550;13.148;2023-05-10T10:45:25;22.70;8.40
6210;DHT22;3138;52.550;13.148;2023-05-10T10:48:22;22.70;99.90
6210;DHT22;3138;52.550;13.148;2023-05-10T10:50:56;22.80;99.90
6210;DHT22;3138;52.550;13.148;2023-05-10T10:53:26;22.70;99.90
6210;DHT22;3138;52.550;13.148;2023-05-10T10:56:04;22.90;1.00
6210;DHT22;3138;52.550;13.148;2023-05-10T10:58:33;23.00;1.00
6210;DHT22;3138;52.550;13.148;2023-05-10T11:01:12;22.70;99.90
6210;DHT22;3138;52.550;13.148;2023-05-10T11:03:39;22.80;99.90
6210;DHT22;3138;52.550;13.148;2023-05-10T11:06:06;22.70;1.00
6210;DHT22;3138;52.550;13.148;2023-05-10T11:08:35;23.20;1.00
6210;DHT22;3138;52.550;13.148;2023-05-10T11:11:07;23.90;1.00
6210;DHT22;3138;52.550;13.148;2023-05-10T11:13:38;23.70;57.20
6210;DHT22;3138;52.550;13.148;2023-05-10T11:16:18;23.40;98.10
6210;DHT22;3138;52.550;13.148;2023-05-10T11:18:57;23.50;1.00
6210;DHT22;3138;52.550;13.148;2023-05-10T11:21:24;23.30;1.00
6210;DHT22;3138;52.550;13.148;2023-05-10T11:23:53;23.20;99.90
6210;DHT22;3138;52.550;13.148;2023-05-10T11:26:22;23.20;99.90
6210;DHT22;3138;52.550;13.148;2023-05-10T11:28:52;23.60;1.00
6210;DHT22;3138;52.550;13.148;2023-05-10T11:31:22;23.50;1.00
6210;DHT22;3138;52.550;13.148;2023-05-10T11:33:51;23.90;47.50
6210;DHT22;3138;52.550;13.148;2023-05-10T11:36:19;24.00;1.00
6210;DHT22;3138;52.550;13.148;2023-05-10T11:38:47;23.90;1.00
6210;DHT22;3138;52.550;13.148;2023-05-10T11:41:17;23.40;31.50
6210;DHT22;3138;52.550;13.148;2023-05-10T11:43:46;23.60;24.80
6210;DHT22;3138;52.550;13.148;2023-05-10T11:46:14;23.30;99.90
6210;DHT22;3138;52.550;13.148;2023-05-10T11:48:43;23.80;99.90
6210;DHT22;3138;52.550;13.148;2023-05-10T11:51:10;24.10;1.00
6210;DHT22;3138;52.550;13.148;2023-05-10T11:53:37;23.90;1.00
6210;DHT22;3138;52.550;13.148;2023-05-10T11:56:05;23.80;99.90
6210;DHT22;3138;52.550;13.148;2023-05-10T11:58:32;24.40;99.90
6210;DHT22;3138;52.550;13.148;2023-05-10T12:01:00;24.30;1.00
6210;DHT22;3138;52.550;13.148;2023-05-10T12:03:27;24.30;1.00
6210;DHT22;3138;52.550;13.148;2023-05-10T12:05:56;24.30;1.00
6210;DHT22;3138;52.550;13.148;2023-05-10T12:08:25;24.20;1.00
6210;DHT22;3138;52.550;13.148;2023-05-10T12:10:53;23.90;94.20
6210;DHT22;3138;52.550;13.148;2023-05-10T12:13:20;24.40;99.90
6210;DHT22;3138;52.550;13.148;2023-05-10T12:15:47;24.60;1.00
6210;DHT22;3138;52.550;13.148;2023-05-10T12:18:14;24.60;99.90
6210;DHT22;3138;52.550;13.148;2023-05-10T12:20:41;24.60;99.90
6210;DHT22;3138;52.550;13.148;2023-05-10T12:23:10;24.60;82.40
6210;DHT22;3138;52.550;13.148;2023-05-10T12:25:37;24.90;1.00
6210;DHT22;3138;52.550;13.148;2023-05-10T12:28:08;24.40;1.00
6210;DHT22;3138;52.550;13.148;2023-05-10T12:30:36;24.60;99.90
6210;DHT22;3138;52.550;13.148;2023-05-10T12:33:08;25.00;1.00
6210;DHT22;3138;52.550;13.148;2023-05-10T12:35:44;25.00;1.00
6210;DHT22;3138;52.550;13.148;2023-05-10T12:38:29;24.80;1.00
6210;DHT22;3138;52.550;13.148;2023-05-10T12:40:57;24.60;1.00
6210;DHT22;3138;52.550;13.148;2023-05-10T12:43:24;24.10;1.00
6210;DHT22;3138;52.550;13.148;2023-05-10T12:45:51;24.50;1.00
6210;DHT22;3138;52.550;13.148;2023-05-10T12:48:18;24.60;1.00
6210;DHT22;3138;52.550;13.148;2023-05-10T12:50:45;24.60;1.00
6210;DHT22;3138;52.550;13.148;2023-05-10T12:53:13;24.70;99.90
6210;DHT22;3138;52.550;13.148;2023-05-10T12:55:42;25.00;99.90
6210;DHT22;3138;52.550;13.148;2023-05-10T12:58:09;24.90;92.40
6210;DHT22;3138;52.550;13.148;2023-05-10T13:00:36;25.00;99.90
6210;DHT22;3138;52.550;13.148;2023-05-10T13:03:03;24.70;1.00
6210;DHT22;3138;52.550;13.148;2023-05-10T13:05:31;24.70;99.90
6210;DHT22;3138;52.550;13.148;2023-05-10T13:07:57;24.60;99.90
6210;DHT22;3138;52.550;13.148;2023-05-10T13:10:24;24.60;99.90
6210;DHT22;3138;52.550;13.148;2023-05-10T13:12:52;24.60;1.00
6210;DHT22;3138;52.550;13.148;2023-05-10T13:15:19;24.80;99.90
6210;DHT22;3138;52.550;13.148;2023-05-10T13:17:46;25.10;1.00
6210;DHT22;3138;52.550;13.148;2023-05-10T13:20:13;25.20;99.90
6210;DHT22;3138;52.550;13.148;2023-05-10T13:22:40;24.90;1.00
6210;DHT22;3138;52.550;13.148;2023-05-10T13:25:08;25.20;1.00
6210;DHT22;3138;52.550;13.148;2023-05-10T13:27:35;25.10;1.00
6210;DHT22;3138;52.550;13.148;2023-05-10T13:30:04;24.80;1.00
6210;DHT22;3138;52.550;13.148;2023-05-10T13:32:31;24.70;1.00
6210;DHT22;3138;52.550;13.148;2023-05-10T13:34:59;24.90;1.00
6210;DHT22;3138;52.550;13.148;2023-05-10T13:37:26;25.00;99.90
6210;DHT22;3138;52.550;13.148;2023-05-10T13:39:52;24.60;1.00
6210;DHT22;3138;52.550;13.148;2023-05-10T13:42:19;24.20;99.90
6210;DHT22;3138;52.550;13.148;2023-05-10T13:44:46;24.50;99.90
6210;DHT22;3138;52.550;13.148;2023-05-10T13:47:14;24.40;99.90
6210;DHT22;3138;52.550;13.148;2023-05-10T13:49:41;24.20;1.00
6210;DHT22;3138;52.550;13.148;2023-05-10T13:52:08;24.30;46.70
6210;DHT22;3138;52.550;13.148;2023-05-10T13:54:35;24.20;91.20
6210;DHT22;3138;52.550;13.148;2023-05-10T13:57:03;24.50;99.90
6210;DHT22;3138;52.550;13.148;2023-05-10T13:59:30;25.00;2.60
6210;DHT22;3138;52.550;13.148;2023-05-10T14:01:58;25.20;1.00
6210;DHT22;3138;52.550;13.148;2023-05-10T14:04:26;24.60;1.00
6210;DHT22;3138;52.550;13.148;2023-05-10T14:06:53;24.30;99.90
6210;DHT22;3138;52.550;13.148;2023-05-10T14:09:20;24.40;1.00
6210;DHT22;3138;52.550;13.148;2023-05-10T14:11:47;24.40;1.00
6210;DHT22;3138;52.550;13.148;2023-05-10T14:14:13;24.10;1.00
6210;DHT22;3138;52.550;13.148;2023-05-10T14:16:42;23.80;1.00
6210;DHT22;3138;52.550;13.148;2023-05-10T14:19:09;24.00;1.00
6210;DHT22;3138;52.550;13.148;2023-05-10T14:21:38;23.90;1.00
6210;DHT22;3138;52.550;13.148;2023-05-10T14:24:05;23.70;1.00
6210;DHT22;3138;52.550;13.148;2023-05-10T14:26:32;23.50;54.00
6210;DHT22;3138;52.550;13.148;2023-05-10T14:28:59;23.60;1.00
6210;DHT22;3138;52.550;13.148;2023-05-10T14:31:26;23.50;1.00
6210;DHT22;3138;52.550;13.148;2023-05-10T14:33:55;23.60;1.00
6210;DHT22;3138;52.550;13.148;2023-05-10T14:36:22;23.60;1.00
6210;DHT22;3138;52.550;13.148;2023-05-10T14:38:50;23.50;99.90
6210;DHT22;3138;52.550;13.148;2023-05-10T14:41:17;23.60;99.90
6210;DHT22;3138;52.550;13.148;2023-05-10T14:43:44;23.70;99.90
6210;DHT22;3138;52.550;13.148;2023-05-10T14:46:11;23.90;1.00
6210;DHT22;3138;52.550;13.148;2023-05-10T14:48:38;24.10;85.20
6210;DHT22;3138;52.550;13.148;2023-05-10T14:51:05;23.90;99.90
6210;DHT22;3138;52.550;13.148;2023-05-10T14:53:32;23.70;1.00
6210;DHT22;3138;52.550;13.148;2023-05-10T14:56:00;23.50;1.00
6210;DHT22;3138;52.550;13.148;2023-05-10T14:58:28;23.80;1.00
6210;DHT22;3138;52.550;13.148;2023-05-10T15:00:55;23.60;99.90
6210;DHT22;3138;52.550;13.148;2023-05-10T15:03:23;24.00;1.00
6210;DHT22;3138;52.550;13.148;2023-05-10T15:05:50;24.20;39.60
6210;DHT22;3138;52.550;13.148;2023-05-10T15:08:17;24.10;1.00
6210;DHT22;3138;52.550;13.148;2023-05-10T15:10:44;24.00;1.00
6210;DHT22;3138;52.550;13.148;2023-05-10T15:13:12;24.10;1.00
6210;DHT22;3138;52.550;13.148;2023-05-10T15:15:39;23.90;1.00
6210;DHT22;3138;52.550;13.148;2023-05-10T15:18:06;24.00;83.50
6210;DHT22;3138;52.550;13.148;2023-05-10T15:20:33;24.00;99.90
6210;DHT22;3138;52.550;13.148;2023-05-10T15:23:00;24.10;99.90
6210;DHT22;3138;52.550;13.148;2023-05-10T15:25:27;24.20;1.00
6210;DHT22;3138;52.550;13.148;2023-05-10T15:27:54;24.20;99.90
6210;DHT22;3138;52.550;13.148;2023-05-10T15:30:22;24.30;1.90
6210;DHT22;3138;52.550;13.148;2023-05-10T15:32:49;24.30;99.90
6210;DHT22;3138;52.550;13.148;2023-05-10T15:35:16;24.10;1.00
6210;DHT22;3138;52.550;13.148;2023-05-10T15:37:43;24.10;1.00
6210;DHT22;3138;52.550;13.148;2023-05-10T15:40:11;23.90;1.00
6210;DHT22;3138;52.550;13.148;2023-05-10T15:42:38;23.60;99.90
6210;DHT22;3138;52.550;13.148;2023-05-10T15:45:05;23.20;99.90
6210;DHT22;3138;52.550;13.148;2023-05-10T15:47:34;22.40;1.00
6210;DHT22;3138;52.550;13.148;2023-05-10T15:50:01;22.00;99.90
6210;DHT22;3138;52.550;13.148;2023-05-10T15:52:28;21.90;1.00
6210;DHT22;3138;52.550;13.148;2023-05-10T15:54:55;21.50;80.10
6210;DHT22;3138;52.550;13.148;2023-05-10T15:57:21;21.30;99.90
6210;DHT22;3138;52.550;13.148;2023-05-10T15:59:48;21.00;99.90
6210;DHT22;3138;52.550;13.148;2023-05-10T16:02:16;21.10;1.00
6210;DHT22;3138;52.550;13.148;2023-05-10T16:04:45;20.70;80.00